Time;durP1;ratioP1;P1;durP2;ratioP2;P2;SDS_P1;SDS_P2;PMS_P1;PMS_P2;Temp;Humidity;BMP_temperature;BMP_pressure;BME280_temperature;BME280_humidity;BME280_pressure;Samples;Min_cycle;Max_cycle;Signal;HPM_P1;HPM_P2
2022/01/08 00:01:38;;;;;;;2.92;0.80;;;1.80;99.90;;;;;;5018690;28;20041;-84
2022/01/08 00:04:04;;;;;;;2.42;1.27;;;1.80;99.90;;;;;;5018436;28;20041;-83
2022/01/08 00:06:30;;;;;;;1.95;1.35;;;1.80;99.90;;;;;;5018342;28;20107;-84
2022/01/08 00:08:56;;;;;;;2.75;1.10;;;1.80;99.90;;;;;;5018315;28;20039;-85
2022/01/08 00:11:42;;;;;;;2.25;1.20;;;1.80;99.90;;;;;;5018471;28;20513;-83
2022/01/08 00:14:10;;;;;;;2.42;1.25;;;1.80;99.90;;;;;;5018251;28;20064;-84
2022/01/08 00:16:40;;;;;;;7.28;1.50;;;1.80;99.90;;;;;;5017801;28;20037;-84
2022/01/08 00:19:06;;;;;;;2.88;1.95;;;1.70;99.90;;;;;;5034973;28;20604;-84
2022/01/08 00:21:32;;;;;;;0.40;0.40;;;1.70;99.90;;;;;;5018194;28;20629;-84
2022/01/08 00:24:40;;;;;;;0.40;0.40;;;1.80;99.90;;;;;;5018094;28;20534;-84
2022/01/08 00:27:13;;;;;;;0.40;0.40;;;1.80;99.90;;;;;;5034148;28;20069;-84
2022/01/08 00:29:50;;;;;;;0.90;0.60;;;1.70;99.90;;;;;;5018344;28;20047;-84
2022/01/08 00:32:26;;;;;;;0.60;0.60;;;1.70;99.90;;;;;;5018283;28;20073;-84
2022/01/08 00:35:07;;;;;;;0.43;0.43;;;1.70;99.90;;;;;;5016242;28;20044;-84
2022/01/08 00:37:34;;;;;;;3.55;3.22;;;1.60;99.90;;;;;;5016100;28;20041;-85
2022/01/08 00:40:00;;;;;;;0.40;0.40;;;1.60;99.90;;;;;;5017593;28;20041;-84
2022/01/08 00:42:26;;;;;;;1.15;0.90;;;1.50;99.90;;;;;;5017735;28;20033;-83
2022/01/08 00:44:51;;;;;;;0.30;0.30;;;1.50;99.90;;;;;;5017726;28;20048;-84
2022/01/08 00:47:17;;;;;;;0.50;0.50;;;1.50;99.90;;;;;;5033653;28;20052;-84
2022/01/08 00:49:42;;;;;;;0.47;0.47;;;1.40;99.90;;;;;;5017962;28;20037;-84
2022/01/08 00:52:08;;;;;;;0.70;0.70;;;1.40;99.90;;;;;;5017603;28;20041;-84
2022/01/08 00:54:35;;;;;;;2.17;1.38;;;1.40;99.90;;;;;;5017519;28;20486;-85
2022/01/08 00:57:02;;;;;;;1.85;1.60;;;1.30;99.90;;;;;;5016425;28;20033;-84
2022/01/08 00:59:27;;;;;;;1.40;1.15;;;1.30;99.90;;;;;;5017554;28;20438;-84
2022/01/08 01:05:21;;;;;;;0.52;0.52;;;1.20;99.90;;;;;;5034072;28;20064;-84
2022/01/08 01:07:47;;;;;;;1.83;1.42;;;1.20;99.90;;;;;;5016978;28;20087;-83
2022/01/08 01:10:13;;;;;;;1.55;1.45;;;1.20;99.90;;;;;;5017283;28;20449;-84
2022/01/08 01:12:39;;;;;;;1.05;0.95;;;1.10;99.90;;;;;;5017154;28;20069;-83
2022/01/08 01:15:06;;;;;;;0.55;0.55;;;1.20;99.90;;;;;;5017192;28;20080;-84
2022/01/08 01:17:32;;;;;;;3.15;1.77;;;1.20;99.90;;;;;;5017007;28;20041;-84
2022/01/08 01:19:57;;;;;;;0.43;0.43;;;1.20;99.90;;;;;;5017156;28;20037;-84
2022/01/08 01:22:28;;;;;;;1.08;0.93;;;1.20;99.90;;;;;;5017060;28;20597;-84
2022/01/08 01:25:30;;;;;;;3.25;1.70;;;1.20;99.90;;;;;;5033525;28;20450;-84
2022/01/08 01:28:03;;;;;;;1.60;1.15;;;1.30;99.90;;;;;;5016584;28;20037;-84
2022/01/08 01:41:26;;;;;;;1.50;1.08;;;1.30;99.90;;;;;;5032972;28;20080;-84
2022/01/08 01:49:18;;;;;;;;;;;1.40;99.90;;;;;;5033533;28;20056;-84
2022/01/08 01:51:43;;;;;;;14.80;2.05;;;1.50;99.90;;;;;;5016509;28;19917;-84
2022/01/08 01:54:09;;;;;;;1.02;0.93;;;1.40;99.90;;;;;;5016391;28;20163;-84
2022/01/08 01:56:36;;;;;;;0.68;0.50;;;1.50;99.90;;;;;;5032489;28;20120;-84
2022/01/08 01:59:03;;;;;;;0.77;0.70;;;1.50;99.90;;;;;;5016363;28;20073;-84
2022/01/08 02:01:28;;;;;;;2.10;1.38;;;1.50;99.90;;;;;;5016390;28;20494;-83
2022/01/08 02:03:56;;;;;;;2.85;1.50;;;1.50;99.90;;;;;;5016014;28;20029;-84
2022/01/08 02:06:21;;;;;;;4.03;1.83;;;1.50;99.90;;;;;;5026557;28;20145;-84
2022/01/08 02:08:47;;;;;;;2.03;1.13;;;1.50;99.90;;;;;;5006411;28;20171;-84
2022/01/08 02:11:15;;;;;;;3.80;1.08;;;1.50;99.90;;;;;;5025567;28;20527;-84
2022/01/08 02:13:41;;;;;;;1.15;0.63;;;1.60;99.90;;;;;;5014959;28;20025;-84
2022/01/08 02:16:08;;;;;;;0.60;0.60;;;1.60;99.90;;;;;;5015662;28;20038;-85
2022/01/08 02:18:34;;;;;;;2.17;1.40;;;1.60;99.90;;;;;;5016338;28;20045;-83
2022/01/08 02:21:01;;;;;;;0.70;0.70;;;1.60;99.90;;;;;;5032397;28;20044;-83
2022/01/08 02:23:27;;;;;;;1.20;0.68;;;1.60;99.90;;;;;;5026487;28;20041;-84
2022/01/08 02:26:03;;;;;;;0.63;0.50;;;1.60;99.90;;;;;;5012421;28;20034;-84
2022/01/08 02:28:29;;;;;;;0.40;0.40;;;1.60;99.90;;;;;;5023488;28;20600;-83
2022/01/08 02:30:54;;;;;;;0.65;0.60;;;1.60;99.90;;;;;;5030516;28;20037;-83
2022/01/08 02:33:24;;;;;;;1.98;1.40;;;1.60;99.90;;;;;;5013409;28;20041;-84
2022/01/08 02:35:50;;;;;;;11.27;2.05;;;1.70;99.90;;;;;;5015673;28;20143;-84
2022/01/08 02:38:15;;;;;;;1.58;1.10;;;1.70;99.90;;;;;;5032025;28;20141;-83
2022/01/08 02:40:50;;;;;;;1.95;1.05;;;1.70;99.90;;;;;;5015828;28;20037;-84
2022/01/08 02:43:15;;;;;;;6.03;1.83;;;1.70;99.90;;;;;;5010749;28;20034;-83
2022/01/08 02:45:41;;;;;;;0.60;0.60;;;1.70;99.90;;;;;;5015428;28;20049;-83
2022/01/08 02:48:06;;;;;;;6.03;1.70;;;1.70;99.90;;;;;;5015249;28;20438;-84
2022/01/08 02:50:32;;;;;;;0.52;0.52;;;1.70;99.90;;;;;;5015462;28;20042;-85
2022/01/08 02:52:57;;;;;;;3.35;1.25;;;1.70;99.90;;;;;;5009625;28;20045;-83
2022/01/08 02:55:23;;;;;;;0.38;0.38;;;1.60;99.90;;;;;;5015481;28;20091;-83
2022/01/08 02:57:49;;;;;;;0.82;0.82;;;1.70;99.90;;;;;;5012033;28;20043;-83
2022/01/08 03:00:17;;;;;;;0.55;0.55;;;1.60;99.90;;;;;;5002130;28;20030;-84
2022/01/08 03:02:45;;;;;;;1.00;0.60;;;1.60;99.90;;;;;;5031800;28;20406;-84
2022/01/08 03:05:11;;;;;;;1.30;0.82;;;1.60;99.90;;;;;;5015366;28;20045;-83
2022/01/08 03:07:41;;;;;;;2.55;0.90;;;1.60;99.90;;;;;;5014559;28;20049;-84
2022/01/08 03:10:10;;;;;;;0.68;0.68;;;1.60;99.90;;;;;;5015120;28;20442;-84
2022/01/08 03:12:43;;;;;;;5.50;1.92;;;1.60;99.90;;;;;;5015141;28;20037;-84
2022/01/08 03:15:14;;;;;;;5.32;2.63;;;1.60;99.90;;;;;;5031597;28;20080;-83
2022/01/08 03:17:40;;;;;;;3.10;1.35;;;1.50;99.90;;;;;;5014861;28;20076;-84
2022/01/08 03:20:11;;;;;;;2.80;1.80;;;1.50;99.90;;;;;;5032903;28;20041;-84
2022/01/08 03:22:38;;;;;;;1.92;1.20;;;1.40;99.90;;;;;;5038198;28;20108;-84
2022/01/08 03:25:05;;;;;;;4.22;2.38;;;1.40;99.90;;;;;;5021868;28;20080;-83
2022/01/08 03:27:31;;;;;;;3.65;1.90;;;1.40;99.90;;;;;;5037686;28;20044;-84
2022/01/08 03:29:57;;;;;;;4.75;2.20;;;1.50;99.90;;;;;;5038221;28;20040;-83
2022/01/08 03:32:22;;;;;;;1.55;1.05;;;1.30;99.90;;;;;;5038130;28;20128;-83
2022/01/08 03:34:48;;;;;;;1.25;1.00;;;1.30;99.90;;;;;;5038030;28;20184;-83
2022/01/08 03:37:14;;;;;;;5.88;1.98;;;1.40;99.90;;;;;;5037827;28;20609;-84
2022/01/08 03:39:40;;;;;;;1.45;1.00;;;1.20;99.90;;;;;;5054821;28;20513;-84
2022/01/08 03:42:05;;;;;;;1.38;0.98;;;1.20;99.90;;;;;;5037731;28;20045;-84
2022/01/08 03:44:31;;;;;;;4.70;3.35;;;1.10;99.90;;;;;;5021871;28;20048;-84
2022/01/08 03:47:22;;;;;;;1.48;1.38;;;1.10;99.90;;;;;;5021170;28;20037;-84
2022/01/08 03:49:42;;;;;;;1.00;0.70;;;1.10;99.90;;;;;;5037736;28;20041;-84
2022/01/08 03:52:08;;;;;;;2.80;1.85;;;1.10;99.90;;;;;;5021486;28;20048;-84
2022/01/08 03:54:33;;;;;;;6.18;2.25;;;1.00;99.90;;;;;;5037763;28;20033;-84
2022/01/08 03:56:59;;;;;;;3.20;2.05;;;1.00;99.90;;;;;;5020960;28;20040;-84
2022/01/08 03:59:24;;;;;;;1.38;1.27;;;1.00;99.90;;;;;;5004990;28;20033;-84
2022/01/08 04:01:50;;;;;;;0.50;0.50;;;1.00;99.90;;;;;;5021414;28;20589;-83
2022/01/08 04:04:15;;;;;;;4.43;1.50;;;1.00;99.90;;;;;;5021465;28;20391;-83
2022/01/08 04:06:41;;;;;;;2.05;1.65;;;1.00;99.90;;;;;;5021055;28;20049;-84
2022/01/08 04:09:07;;;;;;;0.85;0.68;;;1.00;99.90;;;;;;5021310;28;20037;-84
2022/01/08 04:11:32;;;;;;;2.30;1.52;;;1.00;99.90;;;;;;5021076;28;20125;-83
2022/01/08 04:13:58;;;;;;;1.52;1.13;;;1.10;99.90;;;;;;5021308;28;20041;-84
2022/01/08 04:16:30;;;;;;;1.80;1.25;;;1.10;99.90;;;;;;5020848;28;20033;-84
2022/01/08 04:18:57;;;;;;;1.95;1.17;;;1.10;99.90;;;;;;5021355;28;20044;-84
2022/01/08 04:23:54;;;;;;;0.40;0.40;;;1.20;99.90;;;;;;5037804;28;20503;-84
2022/01/08 04:26:22;;;;;;;1.85;1.20;;;1.30;99.90;;;;;;5037565;28;20494;-84
2022/01/08 04:28:48;;;;;;;4.68;2.10;;;1.30;99.90;;;;;;5021281;28;20045;-84
2022/01/08 04:31:14;;;;;;;2.08;1.40;;;1.40;99.90;;;;;;5020619;28;20034;-84
2022/01/08 04:33:42;;;;;;;1.40;0.88;;;1.30;99.90;;;;;;5017694;28;20037;-84
2022/01/08 04:36:08;;;;;;;1.25;1.13;;;1.30;99.90;;;;;;5017789;28;20037;-83
2022/01/08 04:38:34;;;;;;;0.70;0.70;;;1.30;99.90;;;;;;5018025;28;20046;-84
2022/01/08 04:41:00;;;;;;;3.13;1.30;;;1.30;99.90;;;;;;5017895;28;20094;-84
2022/01/08 04:43:26;;;;;;;1.55;0.73;;;1.30;99.90;;;;;;5017701;28;20042;-84
2022/01/08 04:45:52;;;;;;;0.50;0.50;;;1.30;99.90;;;;;;5017737;28;20044;-84
2022/01/08 04:48:18;;;;;;;1.75;0.95;;;1.30;99.90;;;;;;5017393;28;20159;-84
2022/01/08 04:50:44;;;;;;;2.47;1.20;;;1.20;99.90;;;;;;5017994;28;20052;-84
2022/01/08 04:53:10;;;;;;;0.57;0.57;;;1.30;99.90;;;;;;5017788;28;20038;-84
2022/01/08 04:55:36;;;;;;;0.30;0.30;;;1.20;99.90;;;;;;5034177;28;20091;-84
2022/01/08 04:58:03;;;;;;;1.73;0.93;;;1.20;99.90;;;;;;5017306;28;20030;-83
2022/01/08 05:00:28;;;;;;;0.50;0.50;;;1.20;99.90;;;;;;5017511;28;20041;-84
2022/01/08 05:02:54;;;;;;;1.10;0.65;;;1.20;99.90;;;;;;5017463;28;20406;-84
2022/01/08 05:05:20;;;;;;;1.65;1.20;;;1.10;99.90;;;;;;5017513;28;20491;-84
2022/01/08 05:07:45;;;;;;;1.42;0.68;;;1.10;99.90;;;;;;5016936;28;20510;-85
2022/01/08 05:10:11;;;;;;;2.20;1.05;;;1.10;99.90;;;;;;5017380;28;20510;-84
2022/01/08 05:12:37;;;;;;;0.60;0.60;;;1.00;99.90;;;;;;5017260;28;20437;-84
2022/01/08 05:15:04;;;;;;;0.40;0.40;;;1.00;99.90;;;;;;5017287;28;20180;-84
2022/01/08 05:17:34;;;;;;;0.73;0.60;;;1.00;99.90;;;;;;5016892;28;20037;-84
2022/01/08 05:20:08;;;;;;;0.55;0.55;;;0.90;99.90;;;;;;5017133;28;20033;-84
2022/01/08 05:22:52;;;;;;;0.60;0.50;;;0.90;99.90;;;;;;5017080;28;20044;-84
2022/01/08 05:25:20;;;;;;;2.35;1.38;;;0.80;99.90;;;;;;5017429;28;20045;-84
2022/01/08 05:27:47;;;;;;;3.40;2.15;;;0.80;99.90;;;;;;5016516;28;20079;-83
2022/01/08 05:30:15;;;;;;;0.50;0.50;;;0.90;99.90;;;;;;5016952;28;20384;-84
2022/01/08 05:32:41;;;;;;;2.67;1.25;;;0.80;99.90;;;;;;5017018;28;20041;-84
2022/01/08 05:35:07;;;;;;;1.05;0.60;;;0.80;99.90;;;;;;5016774;28;20048;-84
2022/01/08 05:37:33;;;;;;;1.45;1.05;;;0.80;99.90;;;;;;5016648;28;20048;-84
2022/01/08 05:39:58;;;;;;;0.40;0.40;;;0.80;99.90;;;;;;5016773;28;20041;-84
2022/01/08 05:42:24;;;;;;;6.15;1.00;;;0.80;99.90;;;;;;5016942;28;20032;-84
2022/01/08 05:44:49;;;;;;;1.42;1.00;;;0.80;99.90;;;;;;5032967;28;20041;-84
2022/01/08 05:47:15;;;;;;;3.40;1.30;;;0.80;99.90;;;;;;5032812;28;20043;-84
2022/01/08 05:49:41;;;;;;;3.22;1.85;;;0.90;99.90;;;;;;5016595;28;20549;-84
2022/01/08 05:52:07;;;;;;;4.18;1.73;;;1.00;99.90;;;;;;5016928;28;20395;-86
2022/01/08 05:54:33;;;;;;;1.30;0.88;;;0.90;99.90;;;;;;5033244;28;20040;-85
2022/01/08 05:56:59;;;;;;;2.88;1.13;;;0.90;99.90;;;;;;5032537;28;20410;-84
2022/01/08 05:59:26;;;;;;;1.70;1.33;;;0.90;99.90;;;;;;5016738;28;20029;-85
2022/01/08 06:01:53;;;;;;;0.73;0.63;;;0.90;99.90;;;;;;5016339;28;20060;-84
2022/01/08 06:04:19;;;;;;;2.83;2.00;;;0.90;99.90;;;;;;5032964;28;20084;-84
2022/01/08 06:06:45;;;;;;;2.50;1.35;;;0.90;99.90;;;;;;5032432;28;20045;-84
2022/01/08 06:09:11;;;;;;;0.93;0.75;;;0.90;99.90;;;;;;5016535;28;20045;-84
2022/01/08 06:11:37;;;;;;;2.05;1.58;;;0.90;99.90;;;;;;4999878;28;20037;-84
2022/01/08 06:14:02;;;;;;;1.10;0.75;;;0.90;99.90;;;;;;5016287;28;20059;-84
2022/01/08 06:16:33;;;;;;;1.92;1.25;;;0.90;99.90;;;;;;5015674;28;20037;-84
2022/01/08 06:19:05;;;;;;;0.40;0.40;;;0.90;99.90;;;;;;5016477;28;20411;-84
2022/01/08 06:21:31;;;;;;;2.67;0.90;;;0.90;99.90;;;;;;5016317;28;20403;-83
2022/01/08 06:23:56;;;;;;;0.50;0.50;;;0.80;99.90;;;;;;5015860;28;20040;-84
2022/01/08 06:26:22;;;;;;;10.55;2.67;;;0.80;99.90;;;;;;5015680;28;20069;-84
2022/01/08 06:28:49;;;;;;;1.38;1.13;;;0.80;99.90;;;;;;5015822;28;20635;-84
2022/01/08 06:31:15;;;;;;;0.65;0.55;;;0.80;99.90;;;;;;5016028;28;20038;-84
2022/01/08 06:33:41;;;;;;;3.13;1.30;;;0.70;99.90;;;;;;5032564;28;20087;-84
2022/01/08 06:36:06;;;;;;;0.65;0.60;;;0.70;99.90;;;;;;5015349;28;20084;-84
2022/01/08 06:38:32;;;;;;;1.63;1.30;;;0.70;99.90;;;;;;5015859;28;20061;-84
2022/01/08 06:40:57;;;;;;;0.80;0.77;;;0.70;99.90;;;;;;5032331;28;20030;-84
2022/01/08 06:43:23;;;;;;;0.80;0.80;;;0.60;99.90;;;;;;5015790;28;20168;-84
2022/01/08 06:45:48;;;;;;;0.80;0.80;;;0.60;99.90;;;;;;5015767;28;20041;-84
2022/01/08 06:48:14;;;;;;;0.90;0.70;;;0.70;99.90;;;;;;5031636;28;20478;-84
2022/01/08 06:50:40;;;;;;;2.22;1.50;;;0.50;99.90;;;;;;5015500;28;20490;-85
2022/01/08 06:53:05;;;;;;;1.45;0.82;;;0.50;99.90;;;;;;5015613;28;20045;-84
2022/01/08 06:55:31;;;;;;;6.68;1.38;;;0.50;99.90;;;;;;5014826;28;20407;-84
2022/01/08 06:57:58;;;;;;;0.75;0.63;;;0.60;99.90;;;;;;4998642;28;20124;-85
2022/01/08 07:00:23;;;;;;;0.45;0.45;;;0.50;99.90;;;;;;5015362;28;20041;-84
2022/01/08 07:02:49;;;;;;;0.73;0.68;;;1.30;99.90;;;;;;5007818;28;20033;-84
2022/01/08 07:05:15;;;;;;;2.47;1.55;;;0.50;99.90;;;;;;5031059;28;20045;-85
2022/01/08 07:07:41;;;;;;;0.45;0.45;;;0.50;99.90;;;;;;5030599;28;20558;-84
2022/01/08 07:10:07;;;;;;;0.50;0.50;;;0.40;99.90;;;;;;5031059;28;20495;-84
2022/01/08 07:12:32;;;;;;;5.18;0.77;;;0.50;99.90;;;;;;5014516;28;20046;-86
2022/01/08 07:14:58;;;;;;;0.63;0.63;;;0.50;99.90;;;;;;5014667;28;20414;-84
2022/01/08 07:17:23;;;;;;;1.45;0.80;;;0.50;99.90;;;;;;5014378;28;20037;-85
2022/01/08 07:19:49;;;;;;;0.82;0.65;;;0.40;99.90;;;;;;5014599;28;20037;-84
2022/01/08 07:22:15;;;;;;;0.70;0.50;;;0.50;99.90;;;;;;5030704;28;20033;-84
2022/01/08 07:24:41;;;;;;;1.13;1.00;;;0.50;99.90;;;;;;5014648;28;20049;-84
2022/01/08 07:27:06;;;;;;;1.05;0.98;;;0.50;99.90;;;;;;5046900;28;20061;-84
2022/01/08 07:29:32;;;;;;;1.67;0.85;;;0.50;99.90;;;;;;5030932;28;20049;-84
2022/01/08 07:31:57;;;;;;;1.67;0.85;;;0.50;99.90;;;;;;5014890;28;20049;-84
2022/01/08 07:34:23;;;;;;;3.50;1.05;;;0.50;99.90;;;;;;5014322;28;20038;-85
2022/01/08 07:36:49;;;;;;;2.30;1.23;;;0.50;99.90;;;;;;5014233;28;20478;-84
2022/01/08 07:39:14;;;;;;;1.55;0.75;;;0.50;99.90;;;;;;5014732;28;20048;-84
2022/01/08 07:41:40;;;;;;;1.60;0.98;;;0.50;99.90;;;;;;5014385;28;20037;-84
2022/01/08 07:44:06;;;;;;;2.67;1.35;;;0.60;99.90;;;;;;5014347;28;20445;-84
2022/01/08 07:46:31;;;;;;;2.80;1.27;;;0.60;99.90;;;;;;5014006;28;20052;-84
2022/01/08 07:48:57;;;;;;;0.63;0.63;;;0.60;99.90;;;;;;5014325;28;20044;-84
2022/01/08 07:51:22;;;;;;;1.60;0.98;;;0.60;99.90;;;;;;5014270;28;20037;-84
2022/01/08 07:53:48;;;;;;;1.95;1.25;;;0.60;99.90;;;;;;5014587;28;20466;-84
2022/01/08 07:56:15;;;;;;;1.15;0.75;;;0.60;99.90;;;;;;5014013;28;20041;-84
2022/01/08 07:58:40;;;;;;;7.38;1.40;;;0.60;99.90;;;;;;5014061;28;20037;-84
2022/01/08 08:01:06;;;;;;;1.25;1.08;;;0.60;99.90;;;;;;5014543;28;20033;-84
2022/01/08 08:03:32;;;;;;;14.80;5.70;;;0.60;99.90;;;;;;5030558;28;20125;-84
2022/01/08 08:05:57;;;;;;;10.07;1.15;;;0.60;99.90;;;;;;5014219;28;20034;-84
2022/01/08 08:08:23;;;;;;;0.47;0.47;;;0.60;99.90;;;;;;5033786;28;20095;-84
2022/01/08 08:10:52;;;;;;;1.77;0.88;;;0.70;99.90;;;;;;5017772;28;20510;-84
2022/01/08 08:13:19;;;;;;;12.48;1.50;;;0.60;99.90;;;;;;5017895;28;20046;-84
2022/01/08 08:15:45;;;;;;;1.75;1.05;;;0.60;99.90;;;;;;5034072;28;20063;-84
2022/01/08 08:18:11;;;;;;;1.67;1.10;;;0.60;99.90;;;;;;5017406;28;20491;-84
2022/01/08 08:20:37;;;;;;;1.15;0.85;;;0.70;99.90;;;;;;5017718;28;20060;-84
2022/01/08 08:23:03;;;;;;;1.30;1.02;;;0.70;99.90;;;;;;5034213;28;20030;-84
2022/01/08 08:25:28;;;;;;;6.38;1.77;;;0.70;99.90;;;;;;5017486;28;20180;-84
2022/01/08 08:27:55;;;;;;;2.22;1.27;;;0.80;99.90;;;;;;5033363;28;20077;-84
2022/01/08 08:30:21;;;;;;;0.50;0.50;;;0.80;99.90;;;;;;5017564;28;20530;-84
2022/01/08 08:32:47;;;;;;;2.08;1.42;;;0.90;99.90;;;;;;5017656;28;20041;-84
2022/01/08 08:35:13;;;;;;;4.05;1.85;;;1.00;99.90;;;;;;5033905;28;20048;-84
2022/01/08 08:37:40;;;;;;;1.70;1.30;;;0.90;99.90;;;;;;5017038;28;20046;-84
2022/01/08 08:40:08;;;;;;;0.70;0.70;;;1.00;99.90;;;;;;5017204;28;20045;-84
2022/01/08 08:42:34;;;;;;;2.47;1.50;;;1.10;99.90;;;;;;5033602;28;20083;-84
2022/01/08 08:45:00;;;;;;;2.28;1.33;;;1.20;99.90;;;;;;5033750;28;20482;-84
2022/01/08 08:47:25;;;;;;;2.13;1.30;;;1.20;99.90;;;;;;5033254;28;20096;-84
2022/01/08 08:49:51;;;;;;;3.28;1.30;;;1.20;99.90;;;;;;5033690;28;20056;-83
2022/01/08 08:52:17;;;;;;;3.17;1.80;;;1.30;99.90;;;;;;5033844;28;20049;-84
2022/01/08 08:54:43;;;;;;;1.08;0.75;;;1.30;99.90;;;;;;5033419;28;20505;-83
2022/01/08 08:57:10;;;;;;;6.00;2.22;;;1.30;99.90;;;;;;5032941;28;20512;-84
2022/01/08 08:59:36;;;;;;;2.22;1.17;;;1.30;99.90;;;;;;5016965;28;20037;-84
2022/01/08 09:02:02;;;;;;;2.15;1.10;;;1.30;99.90;;;;;;5012690;28;20029;-84
2022/01/08 09:04:28;;;;;;;1.85;1.45;;;1.40;99.90;;;;;;5016946;28;20060;-85
2022/01/08 09:06:53;;;;;;;1.08;0.98;;;1.40;99.90;;;;;;5033042;28;20041;-84
2022/01/08 09:09:20;;;;;;;3.05;1.35;;;1.40;99.90;;;;;;5033158;28;20486;-84
2022/01/08 09:11:45;;;;;;;2.63;1.55;;;1.40;99.90;;;;;;5033324;28;20038;-85
2022/01/08 09:14:11;;;;;;;1.05;0.75;;;1.50;99.90;;;;;;5032718;28;20049;-85
2022/01/08 09:16:37;;;;;;;1.05;0.80;;;1.50;99.90;;;;;;5016161;28;20041;-85
2022/01/08 09:19:04;;;;;;;2.60;1.00;;;1.50;99.90;;;;;;5013399;28;20049;-84
2022/01/08 09:21:29;;;;;;;2.13;1.55;;;1.50;99.90;;;;;;4996470;28;20053;-84
2022/01/08 09:23:55;;;;;;;1.85;1.30;;;1.50;99.90;;;;;;4996472;28;20038;-84
2022/01/08 09:26:20;;;;;;;1.75;1.33;;;1.50;99.90;;;;;;5015308;28;20044;-84
2022/01/08 09:28:46;;;;;;;2.63;1.08;;;1.50;99.90;;;;;;5016025;28;20079;-84
2022/01/08 09:31:12;;;;;;;2.05;1.35;;;1.50;99.90;;;;;;5016136;28;20099;-84
2022/01/08 09:33:38;;;;;;;3.55;1.30;;;1.50;99.90;;;;;;5015980;28;20033;-84
2022/01/08 09:36:05;;;;;;;2.90;1.70;;;1.50;99.90;;;;;;5048480;28;20048;-84
2022/01/08 09:38:30;;;;;;;2.60;1.55;;;1.50;99.90;;;;;;5031836;28;20049;-84
2022/01/08 09:40:56;;;;;;;2.47;1.30;;;1.40;99.90;;;;;;5031826;28;20037;-84
2022/01/08 09:43:22;;;;;;;4.45;1.95;;;1.40;99.90;;;;;;5015799;28;20075;-84
2022/01/08 09:45:47;;;;;;;1.35;1.05;;;1.40;99.90;;;;;;5032338;28;20045;-84
2022/01/08 09:48:14;;;;;;;2.65;1.50;;;1.40;99.90;;;;;;5031402;28;20041;-84
2022/01/08 09:50:41;;;;;;;2.72;1.15;;;1.50;99.90;;;;;;5015783;28;20037;-84
2022/01/08 09:53:07;;;;;;;2.78;1.90;;;1.50;99.90;;;;;;5031986;28;20053;-84
2022/01/08 09:55:33;;;;;;;4.13;2.10;;;1.50;99.90;;;;;;5016238;28;20045;-84
2022/01/08 09:57:59;;;;;;;2.20;1.52;;;1.60;99.90;;;;;;5014906;28;20091;-84
2022/01/08 10:00:25;;;;;;;6.68;3.10;;;1.60;99.90;;;;;;5015227;28;20037;-84
2022/01/08 10:03:16;;;;;;;2.13;1.50;;;1.70;99.90;;;;;;5015457;28;20037;-83
2022/01/08 10:06:04;;;;;;;2.60;1.63;;;1.80;99.90;;;;;;5031804;28;20037;-84
2022/01/08 10:08:32;;;;;;;8.13;2.03;;;1.80;99.90;;;;;;5015204;28;20041;-83
2022/01/08 10:11:05;;;;;;;6.82;2.13;;;1.90;99.90;;;;;;5015334;28;20037;-84
2022/01/08 10:13:42;;;;;;;2.47;1.60;;;1.90;99.90;;;;;;5014877;28;20068;-84
2022/01/08 10:19:01;;;;;;;5.90;2.13;;;2.10;99.90;;;;;;5018261;28;20128;-84
2022/01/08 10:21:28;;;;;;;1.65;1.33;;;2.20;99.90;;;;;;5014969;28;20516;-84
2022/01/08 10:24:04;;;;;;;5.22;2.70;;;2.30;99.90;;;;;;5031573;28;20048;-84
2022/01/08 10:26:31;;;;;;;;;;;2.30;99.90;;;;;;5031741;28;20083;-84
2022/01/08 10:28:59;;;;;;;8.77;3.20;;;2.30;99.90;;;;;;5015221;28;20019;-85
2022/01/08 10:31:27;;;;;;;2.65;1.77;;;2.30;99.90;;;;;;5030928;28;20036;-84
2022/01/08 10:33:55;;;;;;;2.97;0.90;;;2.40;99.90;;;;;;5015415;28;20045;-86
2022/01/08 10:36:32;;;;;;;2.33;1.42;;;2.40;99.90;;;;;;5031069;28;20069;-84
2022/01/08 10:39:03;;;;;;;9.93;3.15;;;2.40;99.90;;;;;;5031099;28;20029;-84
2022/01/08 10:41:29;;;;;;;2.42;1.52;;;2.40;99.90;;;;;;5015175;28;20045;-84
2022/01/08 10:44:05;;;;;;;5.18;1.60;;;2.50;99.90;;;;;;5028166;28;20152;-84
2022/01/08 10:46:30;;;;;;;4.53;2.78;;;2.50;99.90;;;;;;5022621;28;20934;-84
2022/01/08 10:48:56;;;;;;;4.63;2.67;;;2.60;99.90;;;;;;5014453;28;20065;-84
2022/01/08 10:51:35;;;;;;;2.63;1.80;;;2.60;99.90;;;;;;5030883;28;20036;-85
2022/01/08 10:54:12;;;;;;;3.20;1.73;;;2.70;99.90;;;;;;5014313;28;20033;-84
2022/01/08 10:56:42;;;;;;;3.90;2.17;;;2.70;99.90;;;;;;5011670;28;20037;-84
2022/01/08 10:59:09;;;;;;;4.45;2.47;;;2.80;99.90;;;;;;5030029;28;20390;-84
2022/01/08 11:01:43;;;;;;;5.07;2.00;;;2.80;99.90;;;;;;5015129;28;20498;-84
2022/01/08 11:04:40;;;;;;;5.97;2.00;;;2.90;99.90;;;;;;5030987;28;20052;-84
2022/01/08 11:07:14;;;;;;;4.75;2.58;;;2.90;99.90;;;;;;5031001;28;20483;-84
2022/01/08 11:09:41;;;;;;;6.80;2.45;;;2.90;99.90;;;;;;5031385;28;20038;-84
2022/01/08 11:12:11;;;;;;;5.53;2.20;;;3.00;99.90;;;;;;5030975;28;20036;-84
2022/01/08 11:17:27;;;;;;;4.78;2.65;;;3.00;99.90;;;;;;5047681;28;20471;-85
2022/01/08 11:19:58;;;;;;;6.40;3.05;;;3.00;99.90;;;;;;5031103;28;20069;-84
2022/01/08 11:22:27;;;;;;;7.68;4.28;;;3.00;99.90;;;;;;5031131;28;20486;-84
2022/01/08 11:24:57;;;;;;;3.83;2.45;;;3.10;99.90;;;;;;5030779;28;20098;-84
2022/01/08 11:27:31;;;;;;;8.25;3.42;;;3.00;99.90;;;;;;5010561;28;20042;-84
2022/01/08 11:30:03;;;;;;;6.55;3.58;;;3.10;99.90;;;;;;5027710;28;20041;-84
2022/01/08 11:32:36;;;;;;;4.47;2.50;;;3.10;99.90;;;;;;5006453;28;20132;-86
2022/01/08 11:35:05;;;;;;;6.88;2.65;;;3.10;99.90;;;;;;5030515;28;20048;-84
2022/01/08 11:37:31;;;;;;;10.60;3.35;;;3.20;99.90;;;;;;5030102;28;20067;-84
2022/01/08 11:40:00;;;;;;;3.17;2.10;;;3.20;99.90;;;;;;5014398;28;20168;-84
2022/01/08 11:42:26;;;;;;;6.97;4.05;;;3.30;99.90;;;;;;5016588;28;20037;-84
2022/01/08 11:44:54;;;;;;;8.88;4.65;;;3.30;99.90;;;;;;5034674;28;20033;-84
2022/01/08 11:47:21;;;;;;;9.32;5.10;;;3.30;99.90;;;;;;5017783;28;20416;-84
2022/01/08 11:49:48;;;;;;;14.63;2.80;;;3.30;99.90;;;;;;5018131;28;20033;-84
2022/01/08 11:53:05;;;;;;;8.27;4.40;;;3.40;99.90;;;;;;5051295;28;20068;-84
2022/01/08 11:55:34;;;;;;;7.03;3.38;;;3.40;99.90;;;;;;5051253;28;20095;-84
2022/01/08 11:58:19;;;;;;;8.63;4.80;;;3.40;99.90;;;;;;5034288;28;20080;-85
2022/01/08 12:00:51;;;;;;;11.07;5.67;;;3.40;99.90;;;;;;5051421;28;20048;-84
2022/01/08 12:03:32;;;;;;;10.18;4.80;;;3.40;99.90;;;;;;5034404;28;20038;-84
2022/01/08 12:06:00;;;;;;;7.47;4.32;;;3.40;99.90;;;;;;5018097;28;20037;-84
2022/01/08 12:09:15;;;;;;;12.07;3.75;;;3.40;99.90;;;;;;5017502;28;20166;-84
2022/01/08 12:11:47;;;;;;;12.35;6.30;;;3.40;99.90;;;;;;5018002;28;20045;-84
2022/01/08 12:14:18;;;;;;;7.80;5.13;;;3.40;99.90;;;;;;5033998;28;20069;-84
2022/01/08 12:17:11;;;;;;;4.63;2.83;;;3.40;99.90;;;;;;5017127;28;20564;-84
2022/01/08 12:19:43;;;;;;;7.70;4.22;;;3.30;99.90;;;;;;5015433;28;20033;-84
2022/01/08 12:22:20;;;;;;;14.27;5.40;;;3.30;99.90;;;;;;5034147;28;20048;-84
2022/01/08 12:24:49;;;;;;;7.68;5.03;;;3.30;99.90;;;;;;4997979;28;20054;-85
2022/01/08 12:27:33;;;;;;;17.63;7.13;;;3.40;99.90;;;;;;4997440;28;20045;-83
2022/01/08 12:30:30;;;;;;;12.63;7.07;;;3.40;99.90;;;;;;5014360;28;20100;-85
2022/01/08 12:33:19;;;;;;;9.63;5.28;;;3.40;99.90;;;;;;5013648;28;20045;-84
2022/01/08 12:35:45;;;;;;;8.68;4.80;;;3.40;99.90;;;;;;5014496;28;20041;-84
2022/01/08 12:38:29;;;;;;;9.38;6.03;;;3.40;99.90;;;;;;5016676;28;20025;-84
2022/01/08 12:41:20;;;;;;;9.68;4.35;;;3.40;99.90;;;;;;5007482;28;20029;-84
2022/01/08 12:44:26;;;;;;;5.00;2.85;;;3.40;99.90;;;;;;5017243;28;20451;-84
2022/01/08 12:46:53;;;;;;;10.25;5.43;;;3.50;99.90;;;;;;5016725;28;20033;-85
2022/01/08 12:49:20;;;;;;;9.73;4.43;;;3.50;99.90;;;;;;5033592;28;20038;-85
2022/01/08 12:52:02;;;;;;;10.25;5.57;;;3.50;99.90;;;;;;5017271;28;20549;-84
2022/01/08 12:54:28;;;;;;;7.10;4.15;;;3.50;99.90;;;;;;5012970;28;20045;-85
2022/01/08 12:56:56;;;;;;;6.47;4.13;;;3.50;99.90;;;;;;4996977;28;20125;-84
2022/01/08 12:59:30;;;;;;;7.00;3.63;;;3.50;99.90;;;;;;4997080;28;20041;-84
2022/01/08 13:01:56;;;;;;;6.60;3.78;;;3.60;99.90;;;;;;5014331;28;20430;-83
2022/01/08 13:04:40;;;;;;;6.75;3.95;;;3.50;99.90;;;;;;5033342;28;20034;-84
2022/01/08 13:07:06;;;;;;;7.45;3.38;;;3.50;99.90;;;;;;5016490;28;20080;-85
2022/01/08 13:09:31;;;;;;;6.10;3.33;;;3.50;99.90;;;;;;5017174;28;20147;-84
2022/01/08 13:11:57;;;;;;;7.53;3.60;;;3.50;99.90;;;;;;5017824;28;20045;-84
2022/01/08 13:14:24;;;;;;;6.10;3.55;;;3.50;99.90;;;;;;5020291;28;20034;-84
2022/01/08 13:16:53;;;;;;;5.95;3.78;;;3.50;99.90;;;;;;5028166;28;20044;-84
2022/01/08 13:19:29;;;;;;;7.68;3.03;;;3.50;99.90;;;;;;5012758;28;20112;-84
2022/01/08 13:22:02;;;;;;;5.43;2.63;;;3.50;99.90;;;;;;5028748;28;21246;-85
2022/01/08 13:24:46;;;;;;;13.23;5.65;;;3.40;99.90;;;;;;5016124;28;20041;-84
2022/01/08 13:27:23;;;;;;;8.43;4.38;;;3.40;99.90;;;;;;5015959;28;20041;-84
2022/01/08 13:29:55;;;;;;;5.68;3.25;;;3.40;99.90;;;;;;5032682;28;20041;-84
2022/01/08 13:32:24;;;;;;;4.45;2.75;;;3.40;99.90;;;;;;5016381;28;20041;-84
2022/01/08 13:35:02;;;;;;;8.85;4.28;;;3.40;99.90;;;;;;5016012;28;20497;-84